createdAt,value
2019-05-06T00:00:29.549Z,1.35
2019-05-06T00:02:59.543Z,1.47
2019-05-06T00:05:29.527Z,1.15
2019-05-06T00:07:59.371Z,1.62
2019-05-06T00:10:30.963Z,1.60
2019-05-06T00:13:01.716Z,1.17
2019-05-06T00:15:34.289Z,1.92
2019-05-06T00:18:05.185Z,1.15
2019-05-06T00:20:35.167Z,1.30
2019-05-06T00:23:20.026Z,1.77
2019-05-06T00:26:04.047Z,1.32
2019-05-06T00:28:44.680Z,1.45
2019-05-06T00:31:17.111Z,1.65
2019-05-06T00:33:47.187Z,1.52
2019-05-06T00:36:17.166Z,1.57
2019-05-06T00:38:50.697Z,1.62
2019-05-06T00:41:25.197Z,1.92
2019-05-06T00:43:54.965Z,1.52
2019-05-06T00:46:24.819Z,1.72
2019-05-06T00:48:54.632Z,1.60
2019-05-06T00:51:25.002Z,1.45
2019-05-06T00:54:00.135Z,1.25
2019-05-06T00:56:30.086Z,1.50
2019-05-06T00:59:00.084Z,1.77
2019-05-06T01:01:30.224Z,1.98
2019-05-06T01:04:00.149Z,1.30
2019-05-06T01:06:30.296Z,1.45
2019-05-06T01:09:00.396Z,1.50
2019-05-06T01:11:31.798Z,1.50
2019-05-06T01:14:06.833Z,1.67
2019-05-06T01:16:36.852Z,1.22
2019-05-06T01:19:07.057Z,2.10
2019-05-06T01:21:37.262Z,1.47
2019-05-06T01:24:07.725Z,1.60
2019-05-06T01:26:37.906Z,1.50
2019-05-06T01:29:07.879Z,1.50
2019-05-06T01:31:42.830Z,1.80
2019-05-06T01:34:09.501Z,1.40
2019-05-06T01:36:39.853Z,1.50
2019-05-06T01:39:35.469Z,1.98
2019-05-06T01:42:20.232Z,1.17
2019-05-06T01:44:50.030Z,1.45
2019-05-06T01:47:19.854Z,1.22
2019-05-06T01:49:49.628Z,1.67
2019-05-06T01:52:19.579Z,1.80
2019-05-06T01:54:49.475Z,1.45
2019-05-06T01:57:19.331Z,1.85
2019-05-06T01:59:49.939Z,2.98
2019-05-06T02:02:20.228Z,1.82
2019-05-06T02:04:50.109Z,1.87
2019-05-06T02:07:20.109Z,1.77
2019-05-06T02:09:50.997Z,1.35
2019-05-06T02:12:20.770Z,1.30
2019-05-06T02:14:50.577Z,1.62
2019-05-06T02:17:20.679Z,1.35
2019-05-06T02:19:50.728Z,1.27
2019-05-06T02:22:26.400Z,1.40
2019-05-06T02:25:15.347Z,1.40
2019-05-06T02:27:45.588Z,1.22
2019-05-06T02:30:40.935Z,1.17
2019-05-06T02:33:16.956Z,1.80
2019-05-06T02:36:00.580Z,1.82
2019-05-06T02:38:41.201Z,1.30
2019-05-06T02:41:04.587Z,1.40
2019-05-06T02:43:34.863Z,2.10
2019-05-06T02:46:04.985Z,1.40
2019-05-06T02:48:54.476Z,1.52
2019-05-06T02:51:26.710Z,1.50
2019-05-06T02:53:56.877Z,1.27
2019-05-06T02:56:26.745Z,1.20
2019-05-06T02:58:56.634Z,1.10
2019-05-06T03:01:26.598Z,1.80
2019-05-06T03:03:56.565Z,1.37
2019-05-06T03:06:26.937Z,2.83
2019-05-06T03:08:58.039Z,1.65
2019-05-06T03:11:28.226Z,2.60
2019-05-06T03:13:58.034Z,1.65
2019-05-06T03:16:27.826Z,1.57
2019-05-06T03:18:58.168Z,1.85
2019-05-06T03:22:03.472Z,1.90
2019-05-06T03:24:43.382Z,1.90
2019-05-06T03:27:14.338Z,3.00
2019-05-06T03:29:44.699Z,2.20
2019-05-06T03:32:16.498Z,1.62
2019-05-06T03:35:09.020Z,2.90
2019-05-06T03:37:18.381Z,1.85
2019-05-06T03:39:52.663Z,2.33
2019-05-06T03:42:22.959Z,1.98
2019-05-06T03:44:56.893Z,2.40
2019-05-06T03:47:34.826Z,1.77
2019-05-06T03:50:07.756Z,1.75
2019-05-06T03:52:37.525Z,1.75
2019-05-06T03:55:07.546Z,2.05
2019-05-06T03:57:38.585Z,2.55
2019-05-06T04:00:13.010Z,1.87
2019-05-06T04:02:43.476Z,1.80
2019-05-06T04:05:14.968Z,1.40
2019-05-06T04:07:46.625Z,1.65
2019-05-06T04:10:16.752Z,1.30
2019-05-06T04:12:48.533Z,1.62
2019-05-06T04:15:19.022Z,1.15
2019-05-06T04:17:56.122Z,1.25
2019-05-06T04:20:47.906Z,1.57
2019-05-06T04:23:43.497Z,1.50
2019-05-06T04:26:24.127Z,1.22
2019-05-06T04:28:54.849Z,1.52
2019-05-06T04:31:25.417Z,2.05
2019-05-06T04:34:08.815Z,1.67
2019-05-06T04:36:26.976Z,1.10
2019-05-06T04:38:56.966Z,1.85
2019-05-06T04:41:27.075Z,1.40
2019-05-06T04:43:57.388Z,1.62
2019-05-06T04:46:27.637Z,2.17
2019-05-06T04:48:58.621Z,1.27
2019-05-06T04:51:28.898Z,2.47
2019-05-06T04:53:59.025Z,2.58
2019-05-06T04:56:29.069Z,1.95
2019-05-06T04:58:58.944Z,1.98
2019-05-06T05:01:29.606Z,1.17
2019-05-06T05:03:59.795Z,1.30
2019-05-06T05:06:32.656Z,1.40
2019-05-06T05:09:02.888Z,1.47
2019-05-06T05:11:53.249Z,1.98
2019-05-06T05:14:42.465Z,2.10
2019-05-06T05:17:30.401Z,1.62
2019-05-06T05:20:02.115Z,1.50
2019-05-06T05:22:33.597Z,1.55
2019-05-06T05:25:05.009Z,2.67
2019-05-06T05:27:35.558Z,2.42
2019-05-06T05:30:05.885Z,1.40
2019-05-06T05:32:37.574Z,1.72
2019-05-06T05:35:07.919Z,1.55
2019-05-06T05:37:38.123Z,1.30
2019-05-06T05:40:08.708Z,1.75
2019-05-06T05:43:02.917Z,1.50
2019-05-06T05:45:33.088Z,1.60
2019-05-06T05:48:06.762Z,2.08
2019-05-06T05:50:39.314Z,2.40
2019-05-06T05:53:09.129Z,1.65
2019-05-06T05:55:39.018Z,1.60
2019-05-06T05:58:09.301Z,1.98
2019-05-06T06:00:39.600Z,1.75
2019-05-06T06:03:09.491Z,2.75
2019-05-06T06:05:39.267Z,1.67
2019-05-06T06:08:09.246Z,1.40
2019-05-06T06:10:53.969Z,0.82
2019-05-06T06:13:24.415Z,1.60
2019-05-06T06:16:12.991Z,2.22
2019-05-06T06:18:52.447Z,1.25
2019-05-06T06:21:32.052Z,1.00
2019-05-06T06:24:07.261Z,1.40
2019-05-06T06:26:37.456Z,2.12
2019-05-06T06:29:07.629Z,1.47
2019-05-06T06:31:46.518Z,1.82
2019-05-06T06:34:22.348Z,1.90
2019-05-06T06:37:10.193Z,2.00
2019-05-06T06:39:42.745Z,1.40
2019-05-06T06:42:13.682Z,1.07
2019-05-06T06:44:43.926Z,1.87
2019-05-06T06:47:14.123Z,1.62
2019-05-06T06:49:44.807Z,2.00
2019-05-06T06:52:15.176Z,1.52
2019-05-06T06:54:45.428Z,1.80
2019-05-06T06:57:33.926Z,1.30
2019-05-06T07:00:28.444Z,1.92
2019-05-06T07:03:02.863Z,1.60
2019-05-06T07:05:42.374Z,2.62
2019-05-06T07:08:13.223Z,2.62
2019-05-06T07:10:43.408Z,2.35
2019-05-06T07:13:15.345Z,2.75
2019-05-06T07:15:45.638Z,2.12
2019-05-06T07:18:15.603Z,1.45
2019-05-06T07:21:06.979Z,1.15
2019-05-06T07:23:37.569Z,1.98
2019-05-06T07:26:08.335Z,1.67
2019-05-06T07:28:38.300Z,2.52
2019-05-06T07:31:20.730Z,1.85
2019-05-06T07:33:42.885Z,2.35
2019-05-06T07:36:13.064Z,1.82
2019-05-06T07:38:52.401Z,1.77
2019-05-06T07:41:45.785Z,2.67
2019-05-06T07:44:29.905Z,1.55
2019-05-06T07:47:19.126Z,1.65
2019-05-06T07:49:49.141Z,1.32
2019-05-06T07:52:19.214Z,1.55
2019-05-06T07:54:49.041Z,1.82
2019-05-06T07:57:19.176Z,1.82
2019-05-06T07:59:49.071Z,2.00
2019-05-06T08:02:19.317Z,1.80
2019-05-06T08:04:49.857Z,1.25
2019-05-06T08:07:22.129Z,2.00
2019-05-06T08:09:52.909Z,1.47
2019-05-06T08:12:23.368Z,1.62
2019-05-06T08:14:53.273Z,1.82
2019-05-06T08:17:28.396Z,1.70
2019-05-06T08:19:58.274Z,2.00
2019-05-06T08:23:02.752Z,1.95
2019-05-06T08:25:44.601Z,1.65
2019-05-06T08:28:14.436Z,1.55
2019-05-06T08:30:44.638Z,1.22
2019-05-06T08:33:14.580Z,1.25
2019-05-06T08:35:44.396Z,1.27
2019-05-06T08:38:14.416Z,1.40
2019-05-06T08:40:44.395Z,2.20
2019-05-06T08:43:14.304Z,2.20
2019-05-06T08:45:44.996Z,3.08
2019-05-06T08:48:14.783Z,2.67
2019-05-06T08:51:02.721Z,2.35
2019-05-06T08:54:03.047Z,2.72
2019-05-06T08:56:33.162Z,2.10
2019-05-06T08:59:03.258Z,2.58
2019-05-06T09:01:50.319Z,2.58
2019-05-06T09:04:22.630Z,1.40
2019-05-06T09:06:53.389Z,1.25
2019-05-06T09:09:23.589Z,1.32
2019-05-06T09:11:53.790Z,1.40
2019-05-06T09:14:23.976Z,1.15
2019-05-06T09:16:54.294Z,1.47
2019-05-06T09:19:24.492Z,1.00
2019-05-06T09:21:54.396Z,1.27
2019-05-06T09:24:24.317Z,1.40
2019-05-06T09:27:06.943Z,1.40
2019-05-06T09:29:44.456Z,0.90
2019-05-06T09:32:22.506Z,1.00
2019-05-06T09:34:54.167Z,1.35
2019-05-06T09:37:24.381Z,1.10
2019-05-06T09:39:54.346Z,1.40
2019-05-06T09:42:24.542Z,1.45
2019-05-06T09:44:54.676Z,1.30
2019-05-06T09:47:44.934Z,1.35
2019-05-06T09:50:17.722Z,1.55
2019-05-06T09:52:47.892Z,1.35
2019-05-06T09:55:23.311Z,1.60
2019-05-06T09:58:03.475Z,1.32
2019-05-06T10:00:37.902Z,1.70
2019-05-06T10:03:08.015Z,1.30
2019-05-06T10:05:38.085Z,1.45
2019-05-06T10:08:08.161Z,1.92
2019-05-06T10:10:38.128Z,1.40
2019-05-06T10:13:08.101Z,1.15
2019-05-06T10:15:38.046Z,1.20
2019-05-06T10:18:08.170Z,1.98
2019-05-06T10:20:44.560Z,1.50
2019-05-06T10:23:15.289Z,1.50
2019-05-06T10:25:45.315Z,1.80
2019-05-06T10:28:54.091Z,0.82
2019-05-06T10:31:24.008Z,0.98
2019-05-06T10:34:13.939Z,0.65
2019-05-06T10:36:53.304Z,0.70
2019-05-06T10:39:26.150Z,1.07
2019-05-06T10:42:13.856Z,1.20
2019-05-06T10:45:09.057Z,0.95
2019-05-06T10:47:38.950Z,1.55
2019-05-06T10:50:12.434Z,0.93
2019-05-06T10:53:02.630Z,1.00
2019-05-06T10:55:32.607Z,1.55
2019-05-06T10:58:02.872Z,1.17
2019-05-06T11:00:33.351Z,1.40
2019-05-06T11:03:14.447Z,1.62
2019-05-06T11:05:43.459Z,1.55
2019-05-06T11:08:13.615Z,1.52
2019-05-06T11:10:45.329Z,1.57
2019-05-06T11:13:15.516Z,1.42
2019-05-06T11:15:45.817Z,1.02
2019-05-06T11:18:15.765Z,1.05
2019-05-06T11:20:45.702Z,1.40
2019-05-06T11:23:15.593Z,1.32
2019-05-06T11:25:45.451Z,1.10
2019-05-06T11:28:35.347Z,0.82
2019-05-06T11:31:24.219Z,0.68
2019-05-06T11:34:07.253Z,1.72
2019-05-06T11:36:49.468Z,1.20
2019-05-06T11:39:19.381Z,1.15
2019-05-06T11:42:06.395Z,1.27
2019-05-06T11:44:23.574Z,1.77
2019-05-06T11:46:52.776Z,1.85
2019-05-06T11:49:23.439Z,1.27
2019-05-06T11:51:53.319Z,0.85
2019-05-06T11:54:24.457Z,1.12
2019-05-06T11:56:58.405Z,1.00
2019-05-06T11:59:28.423Z,1.00
2019-05-06T12:02:03.334Z,1.55
2019-05-06T12:04:33.404Z,1.25
2019-05-06T12:07:11.417Z,1.20
2019-05-06T12:09:36.405Z,1.90
2019-05-06T12:12:06.629Z,2.10
2019-05-06T12:14:36.579Z,2.20
2019-05-06T12:17:06.632Z,1.70
2019-05-06T12:19:36.741Z,1.40
2019-05-06T12:22:06.533Z,0.93
2019-05-06T12:24:36.445Z,1.27
2019-05-06T12:27:07.186Z,1.35
2019-05-06T12:29:38.420Z,1.70
2019-05-06T12:32:34.547Z,1.40
2019-05-06T12:35:05.292Z,1.50
2019-05-06T12:37:35.858Z,1.35
2019-05-06T12:40:06.062Z,1.15
2019-05-06T12:42:43.407Z,1.32
2019-05-06T12:45:38.832Z,2.02
2019-05-06T12:48:26.753Z,1.77
2019-05-06T12:50:59.916Z,1.47
2019-05-06T12:53:32.606Z,1.52
2019-05-06T12:56:03.063Z,2.42
2019-05-06T12:58:33.421Z,1.42
2019-05-06T13:01:04.274Z,1.40
2019-05-06T13:03:35.024Z,2.30
2019-05-06T13:06:07.749Z,1.98
2019-05-06T13:08:53.903Z,1.47
2019-05-06T13:11:09.159Z,1.52
2019-05-06T13:13:55.576Z,1.07
2019-05-06T13:16:12.565Z,1.02
2019-05-06T13:18:47.742Z,1.55
2019-05-06T13:21:14.802Z,1.92
2019-05-06T13:23:51.376Z,1.20
2019-05-06T13:26:22.250Z,1.10
2019-05-06T13:28:56.965Z,0.93
2019-05-06T13:31:27.073Z,1.30
2019-05-06T13:34:10.286Z,1.12
2019-05-06T13:36:42.609Z,1.20
2019-05-06T13:39:15.068Z,1.17
2019-05-06T13:41:44.069Z,1.62
2019-05-06T13:44:15.833Z,1.15
2019-05-06T13:46:48.198Z,1.25
2019-05-06T13:49:46.207Z,1.70
2019-05-06T13:52:19.810Z,1.70
2019-05-06T13:54:52.806Z,2.00
2019-05-06T13:57:22.083Z,2.20
2019-05-06T13:59:53.250Z,1.77
2019-05-06T14:02:49.422Z,2.83
2019-05-06T14:05:19.492Z,2.85
2019-05-06T14:07:52.526Z,2.22
2019-05-06T14:10:22.371Z,2.87
2019-05-06T14:12:53.393Z,2.08
2019-05-06T14:15:23.473Z,2.37
2019-05-06T14:17:53.543Z,1.75
2019-05-06T14:20:24.068Z,1.12
2019-05-06T14:22:54.064Z,1.62
2019-05-06T14:25:46.333Z,1.40
2019-05-06T14:28:32.425Z,1.35
2019-05-06T14:31:06.341Z,1.10
2019-05-06T14:33:36.319Z,0.88
2019-05-06T14:36:06.280Z,1.32
2019-05-06T14:38:36.104Z,0.98
2019-05-06T14:41:13.284Z,0.68
2019-05-06T14:43:43.337Z,1.00
2019-05-06T14:46:13.509Z,0.80
2019-05-06T14:48:43.885Z,0.82
2019-05-06T14:51:14.092Z,0.68
2019-05-06T14:53:44.197Z,0.90
2019-05-06T14:56:23.106Z,1.05
2019-05-06T14:59:07.435Z,0.88
2019-05-06T15:01:38.988Z,1.05
2019-05-06T15:04:09.449Z,0.65
2019-05-06T15:06:39.530Z,1.25
2019-05-06T15:09:13.131Z,1.05
2019-05-06T15:11:43.400Z,0.40
2019-05-06T15:14:13.896Z,1.10
2019-05-06T15:16:43.886Z,0.57
2019-05-06T15:19:14.088Z,1.02
2019-05-06T15:21:43.995Z,0.98
2019-05-06T15:24:14.663Z,0.75
2019-05-06T15:26:44.744Z,1.47
2019-05-06T15:29:14.602Z,0.80
2019-05-06T15:32:06.360Z,1.22
2019-05-06T15:34:42.592Z,0.80
2019-05-06T15:37:27.467Z,0.53
2019-05-06T15:42:27.979Z,0.80
2019-05-06T15:44:57.759Z,0.60
2019-05-06T15:47:27.997Z,0.95
2019-05-06T15:49:58.536Z,0.90
2019-05-06T15:52:28.509Z,0.70
2019-05-06T15:54:58.888Z,0.62
2019-05-06T15:57:28.845Z,1.20
2019-05-06T15:59:58.718Z,0.80
2019-05-06T16:02:28.940Z,0.80
2019-05-06T16:04:58.817Z,0.50
2019-05-06T16:07:31.811Z,1.17
2019-05-06T16:10:02.461Z,0.80
2019-05-06T16:12:32.522Z,0.50
2019-05-06T16:15:02.778Z,1.15
2019-05-06T16:17:34.165Z,0.80
2019-05-06T16:20:04.581Z,0.93
2019-05-06T16:22:34.815Z,0.80
2019-05-06T16:25:10.639Z,0.82
2019-05-06T16:27:44.141Z,1.27
2019-05-06T16:30:17.327Z,1.05
2019-05-06T16:32:47.192Z,0.80
2019-05-06T16:35:17.590Z,0.70
2019-05-06T16:37:47.428Z,0.60
2019-05-06T16:40:17.929Z,0.98
2019-05-06T16:42:47.743Z,1.27
2019-05-06T16:45:18.912Z,1.10
2019-05-06T16:47:48.960Z,0.70
2019-05-06T16:50:19.555Z,0.98
2019-05-06T16:52:49.483Z,1.00
2019-05-06T16:55:24.437Z,1.17
2019-05-06T16:58:03.579Z,0.93
2019-05-06T17:00:35.174Z,0.80
2019-05-06T17:03:16.862Z,0.93
2019-05-06T17:06:06.727Z,1.30
2019-05-06T17:08:39.293Z,0.70
2019-05-06T17:11:26.132Z,0.90
2019-05-06T17:13:42.579Z,0.70
2019-05-06T17:16:14.015Z,0.70
2019-05-06T17:18:44.177Z,1.40
2019-05-06T17:21:14.225Z,1.17
2019-05-06T17:23:44.062Z,0.62
2019-05-06T17:26:15.400Z,0.72
2019-05-06T17:28:56.788Z,1.10
2019-05-06T17:31:34.032Z,0.75
2019-05-06T17:34:04.895Z,0.68
2019-05-06T17:36:36.180Z,0.78
2019-05-06T17:39:09.369Z,0.80
2019-05-06T17:41:47.626Z,1.10
2019-05-06T17:44:32.350Z,0.93
2019-05-06T17:47:12.436Z,0.62
2019-05-06T17:49:43.023Z,0.72
2019-05-06T17:52:22.343Z,0.65
2019-05-06T17:54:52.898Z,0.65
2019-05-06T17:57:22.964Z,0.85
2019-05-06T17:59:52.987Z,1.00
2019-05-06T18:02:24.515Z,1.10
2019-05-06T18:04:54.345Z,0.80
2019-05-06T18:07:24.272Z,1.40
2019-05-06T18:09:54.364Z,1.20
2019-05-06T18:12:24.244Z,2.58
2019-05-06T18:14:54.832Z,2.08
2019-05-06T18:17:24.688Z,1.52
2019-05-06T18:19:54.540Z,1.75
2019-05-06T18:22:24.453Z,3.40
2019-05-06T18:24:54.578Z,3.00
2019-05-06T18:27:25.688Z,2.10
2019-05-06T18:30:10.150Z,1.62
2019-05-06T18:32:27.310Z,1.12
2019-05-06T18:34:58.491Z,1.30
2019-05-06T18:37:28.775Z,1.17
2019-05-06T18:39:58.994Z,0.80
2019-05-06T18:42:29.091Z,0.80
2019-05-06T18:44:58.965Z,0.57
2019-05-06T18:47:28.945Z,0.60
2019-05-06T18:49:58.871Z,0.60
2019-05-06T18:52:28.751Z,0.53
2019-05-06T18:54:58.688Z,0.60
2019-05-06T18:57:28.641Z,0.70
2019-05-06T18:59:58.492Z,0.70
2019-05-06T19:02:28.415Z,0.60
2019-05-06T19:05:13.064Z,0.50
2019-05-06T19:07:44.313Z,0.72
2019-05-06T19:10:23.803Z,0.55
2019-05-06T19:12:53.826Z,0.68
2019-05-06T19:15:23.760Z,0.62
2019-05-06T19:17:58.377Z,0.72
2019-05-06T19:23:02.373Z,0.70
2019-05-06T19:25:34.667Z,0.70
2019-05-06T19:28:04.903Z,0.65
2019-05-06T19:30:35.361Z,0.60
2019-05-06T19:33:06.973Z,0.72
2019-05-06T19:35:37.363Z,1.00
2019-05-06T19:38:07.361Z,0.93
2019-05-06T19:40:37.225Z,0.70
2019-05-06T19:43:07.305Z,0.70
2019-05-06T19:45:37.137Z,0.75
2019-05-06T19:48:07.128Z,0.93
2019-05-06T19:50:37.292Z,0.68
2019-05-06T19:53:07.290Z,0.90
2019-05-06T19:55:37.203Z,0.90
2019-05-06T19:58:07.071Z,0.95
2019-05-06T20:00:36.979Z,0.78
2019-05-06T20:03:06.963Z,0.75
2019-05-06T20:05:50.228Z,1.27
2019-05-06T20:08:34.207Z,1.17
2019-05-06T20:11:16.681Z,0.93
2019-05-06T20:13:46.657Z,0.80
2019-05-06T20:16:16.696Z,1.20
2019-05-06T20:18:46.656Z,0.85
2019-05-06T20:21:16.466Z,1.00
2019-05-06T20:23:46.857Z,1.50
2019-05-06T20:26:18.081Z,1.20
2019-05-06T20:28:48.336Z,1.10
2019-05-06T20:31:18.533Z,1.15
2019-05-06T20:33:48.480Z,1.25
2019-05-06T20:36:18.293Z,0.80
2019-05-06T20:38:48.173Z,1.15
2019-05-06T20:41:18.169Z,1.12
2019-05-06T20:43:48.285Z,1.32
2019-05-06T20:46:18.516Z,0.90
2019-05-06T20:48:48.705Z,1.02
2019-05-06T20:51:18.747Z,1.22
2019-05-06T20:53:48.534Z,1.17
2019-05-06T20:56:18.526Z,1.72
2019-05-06T20:58:48.421Z,1.00
2019-05-06T21:01:18.357Z,1.25
2019-05-06T21:03:48.251Z,1.10
2019-05-06T21:06:18.446Z,1.12
2019-05-06T21:08:48.204Z,0.90
2019-05-06T21:11:27.640Z,1.20
2019-05-06T21:13:49.834Z,1.27
2019-05-06T21:16:19.752Z,1.07
2019-05-06T21:18:51.996Z,1.30
2019-05-06T21:21:21.637Z,1.50
2019-05-06T21:23:52.481Z,0.98
2019-05-06T21:26:22.432Z,1.00
2019-05-06T21:28:52.362Z,1.30
2019-05-06T21:31:23.495Z,1.32
2019-05-06T21:33:53.361Z,1.05
2019-05-06T21:36:23.379Z,1.40
2019-05-06T21:38:53.663Z,1.60
2019-05-06T21:41:23.906Z,1.22
2019-05-06T21:43:53.866Z,1.47
2019-05-06T21:46:23.776Z,1.27
2019-05-06T21:48:53.569Z,1.35
2019-05-06T21:51:24.302Z,1.87
2019-05-06T21:53:54.194Z,1.35
2019-05-06T21:56:24.134Z,1.57
2019-05-06T21:58:54.477Z,1.82
2019-05-06T22:01:25.165Z,1.52
2019-05-06T22:03:55.549Z,1.87
2019-05-06T22:06:25.540Z,2.05
2019-05-06T22:08:55.629Z,1.82
2019-05-06T22:11:26.977Z,1.52
2019-05-06T22:14:01.425Z,2.50
2019-05-06T22:16:29.019Z,2.83
2019-05-06T22:18:59.115Z,1.95
2019-05-06T22:21:29.068Z,2.10
2019-05-06T22:24:04.228Z,1.95
2019-05-06T22:26:32.994Z,2.30
2019-05-06T22:29:02.965Z,2.05
2019-05-06T22:31:33.373Z,2.70
2019-05-06T22:34:03.241Z,1.85
2019-05-06T22:36:33.567Z,1.40
2019-05-06T22:39:04.627Z,2.10
2019-05-06T22:41:35.643Z,1.77
2019-05-06T22:44:13.701Z,2.12
2019-05-06T22:46:37.413Z,1.82
2019-05-06T22:49:07.427Z,1.60
2019-05-06T22:51:37.350Z,1.90
2019-05-06T22:54:07.345Z,1.55
2019-05-06T22:56:37.339Z,2.27
2019-05-06T22:59:07.197Z,1.80
2019-05-06T23:02:02.432Z,1.45
2019-05-06T23:04:33.394Z,1.80
2019-05-06T23:07:04.847Z,1.42
2019-05-06T23:09:35.239Z,2.10
2019-05-06T23:12:05.235Z,3.25
2019-05-06T23:14:37.258Z,2.90
2019-05-06T23:17:06.957Z,2.20
2019-05-06T23:19:36.808Z,2.42
2019-05-06T23:22:07.361Z,2.40
2019-05-06T23:24:37.135Z,2.15
2019-05-06T23:27:07.304Z,2.33
2019-05-06T23:29:37.103Z,2.40
2019-05-06T23:32:07.624Z,1.87
2019-05-06T23:34:37.484Z,1.98
2019-05-06T23:37:23.884Z,1.85
2019-05-06T23:40:33.205Z,1.67
2019-05-06T23:43:38.827Z,2.12
2019-05-06T23:46:44.765Z,1.42
2019-05-06T23:49:52.785Z,1.70
2019-05-06T23:52:59.062Z,1.75
2019-05-06T23:56:05.158Z,1.65
2019-05-06T23:58:34.960Z,1.40
